Andover, New Jersey
Current Conditions -  °F | °C
As of 7:53 PM on Tuesday 25 Nov 2014 (Local Time) from KFWN Reporting Station
Clear Clear  
Wind Chill: 36°   Ceiling: Unl
Heat Index: 36°   Visibility: 10mi
Dew Point: 29°   Wind: 0mph
Humidity: 76%   Direction: NA
Pressure: 30.09"   Gusts: NA
Location:  40.99°N, 74.74°W
Report Text: KFWN 260053Z AUTO 00000KT 10SM CLR 02/M02 A3009 RMK AO2 SLP192 T00221017
Loading
Personal Weather Stations






























Interactive Weather Map New forecast layout! Learn more

10-Day Weather Forecast

Advertisements
Track Severe Weather on mobile